createdAt,value
2022-11-14T00:01:49.598Z,2.33
2022-11-14T00:07:21.415Z,2.19
2022-11-14T00:12:53.192Z,2.18
2022-11-14T00:18:24.919Z,2.11
2022-11-14T00:23:56.831Z,2.25
2022-11-14T00:29:28.546Z,2.30
2022-11-14T00:35:00.368Z,2.35
2022-11-14T00:40:31.933Z,2.45
2022-11-14T00:46:03.496Z,2.50
2022-11-14T00:51:35.325Z,2.65
2022-11-14T00:57:07.186Z,2.80
2022-11-14T01:02:38.929Z,2.85
2022-11-14T01:08:10.695Z,2.95
2022-11-14T01:13:42.188Z,3.05
2022-11-14T01:19:14.233Z,3.15
2022-11-14T01:24:45.832Z,3.35
2022-11-14T01:30:17.574Z,3.55
2022-11-14T01:35:49.400Z,3.70
2022-11-14T01:41:21.237Z,3.75
2022-11-14T01:46:53.253Z,3.80
2022-11-14T01:52:24.942Z,3.85
2022-11-14T01:57:56.871Z,3.95
2022-11-14T02:03:28.506Z,4.00
2022-11-14T02:09:00.743Z,4.20
2022-11-14T02:14:33.638Z,4.25
2022-11-14T02:20:05.834Z,4.50
2022-11-14T02:25:37.134Z,4.50
2022-11-14T02:31:09.152Z,4.55
2022-11-14T02:36:41.344Z,4.65
2022-11-14T02:42:13.013Z,4.70
2022-11-14T02:47:44.883Z,4.95
2022-11-14T02:53:16.587Z,5.00
2022-11-14T02:58:48.321Z,5.05
2022-11-14T03:04:20.076Z,5.10
2022-11-14T03:09:51.489Z,5.20
2022-11-14T03:15:22.830Z,5.35
2022-11-14T03:20:54.116Z,5.45
2022-11-14T03:26:25.431Z,5.45
2022-11-14T03:31:56.889Z,5.55
2022-11-14T03:37:28.675Z,5.75
2022-11-14T03:43:00.831Z,5.85
2022-11-14T03:48:32.657Z,5.90
2022-11-14T03:54:05.291Z,5.95
2022-11-14T04:05:06.579Z,6.20
2022-11-14T04:16:07.638Z,6.40
2022-11-14T04:21:39.432Z,6.55
2022-11-14T04:27:11.116Z,6.70
2022-11-14T04:32:42.905Z,6.90
2022-11-14T04:38:14.777Z,6.90
2022-11-14T04:43:50.816Z,7.05
2022-11-14T04:49:18.634Z,7.10
2022-11-14T04:54:52.482Z,7.20
2022-11-14T05:00:24.268Z,7.30
2022-11-14T05:05:55.860Z,7.30
2022-11-14T05:11:29.355Z,7.35
2022-11-14T05:16:59.605Z,7.40
2022-11-14T05:22:31.213Z,7.50
2022-11-14T05:28:03.126Z,7.55
2022-11-14T05:33:34.872Z,7.65
2022-11-14T05:39:08.956Z,7.70
2022-11-14T05:44:40.747Z,7.80
2022-11-14T05:50:12.392Z,7.90
2022-11-14T05:55:44.435Z,8.00
2022-11-14T06:01:16.100Z,8.25
2022-11-14T06:12:19.918Z,8.40
2022-11-14T06:17:51.481Z,8.45
2022-11-14T06:23:24.880Z,8.60
2022-11-14T06:28:54.897Z,8.60
2022-11-14T06:34:26.684Z,8.80
2022-11-14T06:39:58.447Z,8.85
2022-11-14T06:45:30.564Z,8.90
2022-11-14T06:51:02.152Z,9.10
2022-11-14T07:02:03.261Z,9.25
2022-11-14T07:07:35.115Z,9.35
2022-11-14T07:13:06.866Z,9.35
2022-11-14T07:18:38.536Z,9.40
2022-11-14T07:24:10.346Z,9.45
2022-11-14T07:29:42.249Z,9.55
2022-11-14T07:35:13.791Z,9.65
2022-11-14T07:40:45.947Z,9.70
2022-11-14T07:46:17.578Z,9.80
2022-11-14T07:51:49.525Z,9.90
2022-11-14T07:57:21.584Z,10.00
2022-11-14T08:02:53.484Z,10.25
2022-11-14T08:13:56.179Z,10.40
2022-11-14T08:19:27.963Z,10.55
2022-11-14T08:24:59.853Z,10.65
2022-11-14T08:30:31.698Z,10.65
2022-11-14T08:36:04.185Z,10.75
2022-11-14T08:38:27.403Z,0.00
2022-11-14T08:43:58.906Z,0.50
2022-11-14T08:55:01.647Z,0.98
2022-11-14T09:00:33.488Z,1.18
2022-11-14T09:06:05.435Z,1.64
2022-11-14T09:11:37.360Z,1.82
2022-11-14T09:17:09.363Z,2.09
2022-11-14T09:22:40.972Z,2.18
2022-11-14T09:33:44.542Z,2.05
2022-11-14T09:39:16.474Z,2.21
2022-11-14T09:44:48.303Z,2.26
2022-11-14T09:50:25.428Z,2.17
2022-11-14T09:55:59.746Z,2.09
2022-11-14T10:01:37.633Z,2.08
2022-11-14T10:07:09.183Z,2.13
2022-11-14T10:12:41.234Z,2.02
2022-11-14T10:18:19.322Z,2.01
2022-11-14T10:23:57.609Z,2.10
2022-11-14T10:29:29.802Z,2.15
2022-11-14T10:35:02.202Z,2.30
2022-11-14T10:40:34.068Z,2.35
2022-11-14T10:46:12.063Z,2.40
2022-11-14T10:51:44.526Z,2.45
2022-11-14T10:57:16.480Z,2.60
2022-11-14T11:02:48.193Z,2.70
2022-11-14T11:08:41.988Z,2.85
2022-11-14T11:13:52.646Z,2.90
2022-11-14T11:19:24.720Z,2.90
2022-11-14T11:24:56.601Z,3.05
2022-11-14T11:30:34.640Z,3.10
2022-11-14T11:36:06.487Z,3.20
2022-11-14T11:47:10.790Z,3.30
2022-11-14T11:52:42.667Z,3.35
2022-11-14T11:58:14.678Z,3.60
2022-11-14T12:03:46.907Z,3.90
2022-11-14T12:09:42.588Z,4.10
2022-11-14T12:14:57.045Z,4.30
2022-11-14T12:20:29.003Z,4.40
2022-11-14T12:26:00.930Z,4.60
2022-11-14T12:31:32.948Z,4.60
2022-11-14T12:37:05.017Z,4.85
2022-11-14T12:42:36.894Z,5.00
2022-11-14T12:48:08.775Z,5.10
2022-11-14T12:53:40.525Z,5.10
2022-11-14T12:59:12.466Z,5.35
2022-11-14T13:04:49.947Z,5.45
2022-11-14T13:15:57.237Z,5.55
2022-11-14T13:21:29.373Z,5.80
2022-11-14T13:27:01.612Z,5.90
2022-11-14T13:32:33.584Z,6.00
2022-11-14T13:38:05.643Z,6.10
2022-11-14T13:49:07.412Z,6.15
2022-11-14T13:54:39.448Z,6.30
2022-11-14T14:00:14.238Z,6.40
2022-11-14T14:05:49.791Z,6.55
2022-11-14T14:11:21.966Z,6.70
2022-11-14T14:16:53.645Z,6.70
2022-11-14T14:22:26.013Z,6.70
2022-11-14T14:27:58.008Z,6.75
2022-11-14T14:33:30.047Z,6.75
2022-11-14T14:39:02.052Z,6.95
2022-11-14T14:44:34.115Z,7.05
2022-11-14T14:50:06.395Z,7.25
2022-11-14T14:55:38.513Z,7.30
2022-11-14T15:01:10.625Z,7.35
2022-11-14T15:06:42.379Z,7.40
2022-11-14T15:12:14.121Z,7.40
2022-11-14T15:17:45.499Z,7.70
2022-11-14T15:23:17.814Z,7.80
2022-11-14T15:28:49.964Z,7.85
2022-11-14T15:34:21.717Z,7.95
2022-11-14T15:39:53.943Z,8.35
2022-11-14T15:45:26.098Z,8.50
2022-11-14T15:50:57.764Z,8.60
2022-11-14T15:56:29.592Z,8.70
2022-11-14T16:02:01.452Z,8.75
2022-11-14T16:07:33.719Z,8.75
2022-11-14T16:13:05.535Z,8.75
2022-11-14T16:18:37.590Z,8.80
2022-11-14T16:24:09.780Z,8.90
2022-11-14T16:29:41.893Z,9.00
2022-11-14T16:35:13.900Z,9.10
2022-11-14T16:40:45.935Z,9.10
2022-11-14T16:46:18.035Z,9.35
2022-11-14T16:51:50.290Z,9.40
2022-11-14T16:57:21.770Z,9.55
2022-11-14T17:02:53.992Z,9.60
2022-11-14T17:08:25.730Z,9.65
2022-11-14T17:13:57.834Z,9.75
2022-11-14T17:19:29.641Z,9.85
2022-11-14T17:25:01.589Z,10.00
2022-11-14T17:30:33.528Z,10.15
2022-11-14T17:36:05.476Z,10.30
2022-11-14T17:41:37.211Z,10.45
2022-11-14T17:47:09.105Z,10.45
2022-11-14T17:52:41.055Z,10.45
2022-11-14T17:58:13.346Z,10.50
2022-11-14T18:03:45.476Z,10.60
2022-11-14T18:09:16.952Z,10.80
2022-11-14T18:14:49.209Z,10.80
2022-11-14T18:20:20.962Z,10.90
2022-11-14T18:25:52.831Z,10.90
2022-11-14T18:31:24.981Z,10.95
2022-11-14T18:36:56.764Z,11.05
2022-11-14T18:42:28.650Z,11.25
2022-11-14T18:48:00.724Z,11.30
2022-11-14T18:53:32.890Z,11.30
2022-11-14T18:59:04.830Z,11.35
2022-11-14T19:04:36.863Z,11.50
2022-11-14T19:10:08.982Z,11.65
2022-11-14T19:15:40.977Z,11.65
2022-11-14T19:21:13.149Z,11.75
2022-11-14T19:26:45.805Z,11.85
2022-11-14T19:32:17.855Z,12.00
2022-11-14T19:37:49.931Z,12.20
2022-11-14T19:43:21.778Z,12.30
2022-11-14T19:48:53.870Z,12.35
2022-11-14T19:54:25.688Z,12.55
2022-11-14T19:59:57.829Z,12.55
2022-11-14T20:05:29.925Z,12.80
2022-11-14T20:11:01.861Z,13.00
2022-11-14T20:16:33.604Z,13.15
2022-11-14T20:24:18.770Z,0.98
2022-11-14T20:29:50.212Z,1.48
2022-11-14T20:35:21.872Z,1.64
2022-11-14T20:40:54.094Z,1.47
2022-11-14T20:46:25.813Z,1.37
2022-11-14T20:51:57.452Z,1.31
2022-11-14T20:57:29.390Z,1.26
2022-11-14T21:03:01.612Z,1.10
2022-11-14T21:08:33.697Z,1.20
2022-11-14T21:14:05.001Z,1.67
2022-11-14T21:19:37.009Z,1.96
2022-11-14T21:25:08.681Z,1.80
2022-11-14T21:30:40.356Z,1.96
2022-11-14T21:36:38.147Z,2.03
2022-11-14T21:41:44.243Z,1.96
2022-11-14T21:47:15.900Z,1.90
2022-11-14T21:52:47.670Z,1.96
2022-11-14T21:58:19.266Z,2.07
2022-11-14T22:03:51.474Z,2.11
2022-11-14T22:09:23.401Z,2.10
2022-11-14T22:14:55.091Z,2.20
2022-11-14T22:20:26.745Z,2.25
2022-11-14T22:25:58.752Z,2.45
2022-11-14T22:31:30.558Z,2.55
2022-11-14T22:37:02.481Z,2.60
2022-11-14T22:42:34.076Z,2.60
2022-11-14T22:48:05.868Z,2.65
2022-11-14T22:53:37.608Z,2.75
2022-11-14T22:59:09.517Z,2.80
2022-11-14T23:04:41.425Z,2.80
2022-11-14T23:10:13.084Z,2.85
2022-11-14T23:15:44.795Z,2.90
2022-11-14T23:21:16.718Z,2.95
2022-11-14T23:26:48.556Z,2.95
2022-11-14T23:32:20.439Z,3.10
2022-11-14T23:37:52.158Z,3.25
2022-11-14T23:43:24.015Z,3.35
2022-11-14T23:48:55.729Z,3.40
2022-11-14T23:59:56.988Z,3.60
